sensor_id;sensor_type;location;lat;lon;timestamp;P1;durP1;ratioP1;P2;durP2;ratioP2
30048;SDS011;16879;50.852;15.602;2024-01-15T00:00:17;14.88;;;7.78;;
30048;SDS011;16879;50.852;15.602;2024-01-15T00:02:43;11.65;;;6.80;;
30048;SDS011;16879;50.852;15.602;2024-01-15T00:05:09;11.35;;;6.75;;
30048;SDS011;16879;50.852;15.602;2024-01-15T00:07:35;20.58;;;8.57;;
30048;SDS011;16879;50.852;15.602;2024-01-15T00:10:02;19.38;;;8.98;;
30048;SDS011;16879;50.852;15.602;2024-01-15T00:12:28;11.80;;;7.20;;
30048;SDS011;16879;50.852;15.602;2024-01-15T00:14:54;21.35;;;9.15;;
30048;SDS011;16879;50.852;15.602;2024-01-15T00:17:20;23.33;;;11.27;;
30048;SDS011;16879;50.852;15.602;2024-01-15T00:19:46;15.55;;;8.25;;
30048;SDS011;16879;50.852;15.602;2024-01-15T00:22:12;17.42;;;9.88;;
30048;SDS011;16879;50.852;15.602;2024-01-15T00:24:38;24.50;;;12.13;;
30048;SDS011;16879;50.852;15.602;2024-01-15T00:27:03;16.50;;;9.85;;
30048;SDS011;16879;50.852;15.602;2024-01-15T00:29:30;12.65;;;7.38;;
30048;SDS011;16879;50.852;15.602;2024-01-15T00:31:56;19.67;;;9.90;;
30048;SDS011;16879;50.852;15.602;2024-01-15T00:34:22;11.90;;;7.95;;
30048;SDS011;16879;50.852;15.602;2024-01-15T00:36:48;10.02;;;6.68;;
30048;SDS011;16879;50.852;15.602;2024-01-15T00:39:14;12.40;;;7.35;;
30048;SDS011;16879;50.852;15.602;2024-01-15T00:41:40;17.30;;;9.20;;
30048;SDS011;16879;50.852;15.602;2024-01-15T00:44:06;14.48;;;8.07;;
30048;SDS011;16879;50.852;15.602;2024-01-15T00:46:32;13.27;;;7.45;;
30048;SDS011;16879;50.852;15.602;2024-01-15T00:48:58;14.70;;;8.10;;
30048;SDS011;16879;50.852;15.602;2024-01-15T00:51:24;11.18;;;7.32;;
30048;SDS011;16879;50.852;15.602;2024-01-15T00:53:50;9.18;;;6.85;;
30048;SDS011;16879;50.852;15.602;2024-01-15T00:56:15;12.00;;;6.30;;
30048;SDS011;16879;50.852;15.602;2024-01-15T00:58:41;10.00;;;6.88;;
30048;SDS011;16879;50.852;15.602;2024-01-15T01:01:07;9.70;;;5.78;;
30048;SDS011;16879;50.852;15.602;2024-01-15T01:03:36;13.48;;;6.72;;
30048;SDS011;16879;50.852;15.602;2024-01-15T01:06:02;10.10;;;6.07;;
30048;SDS011;16879;50.852;15.602;2024-01-15T01:08:28;8.68;;;5.72;;
30048;SDS011;16879;50.852;15.602;2024-01-15T01:10:56;9.48;;;6.65;;
30048;SDS011;16879;50.852;15.602;2024-01-15T01:13:22;9.15;;;6.15;;
30048;SDS011;16879;50.852;15.602;2024-01-15T01:15:48;8.75;;;6.15;;
30048;SDS011;16879;50.852;15.602;2024-01-15T01:18:14;10.13;;;6.80;;
30048;SDS011;16879;50.852;15.602;2024-01-15T01:20:39;9.60;;;5.78;;
30048;SDS011;16879;50.852;15.602;2024-01-15T01:23:05;7.68;;;5.22;;
30048;SDS011;16879;50.852;15.602;2024-01-15T01:25:31;9.93;;;6.30;;
30048;SDS011;16879;50.852;15.602;2024-01-15T01:27:57;11.77;;;6.40;;
30048;SDS011;16879;50.852;15.602;2024-01-15T01:30:23;12.57;;;6.85;;
30048;SDS011;16879;50.852;15.602;2024-01-15T01:32:49;11.30;;;6.75;;
30048;SDS011;16879;50.852;15.602;2024-01-15T01:35:16;13.60;;;6.72;;
30048;SDS011;16879;50.852;15.602;2024-01-15T01:37:44;9.68;;;5.78;;
30048;SDS011;16879;50.852;15.602;2024-01-15T01:40:10;9.88;;;6.20;;
30048;SDS011;16879;50.852;15.602;2024-01-15T01:42:36;11.52;;;6.53;;
30048;SDS011;16879;50.852;15.602;2024-01-15T01:45:02;10.52;;;6.35;;
30048;SDS011;16879;50.852;15.602;2024-01-15T01:47:28;12.32;;;7.20;;
30048;SDS011;16879;50.852;15.602;2024-01-15T01:49:55;13.30;;;7.70;;
30048;SDS011;16879;50.852;15.602;2024-01-15T01:52:21;13.43;;;7.70;;
30048;SDS011;16879;50.852;15.602;2024-01-15T01:54:48;16.65;;;8.25;;
30048;SDS011;16879;50.852;15.602;2024-01-15T01:57:14;13.55;;;7.93;;
30048;SDS011;16879;50.852;15.602;2024-01-15T01:59:42;15.75;;;9.60;;
30048;SDS011;16879;50.852;15.602;2024-01-15T02:02:07;15.50;;;8.93;;
30048;SDS011;16879;50.852;15.602;2024-01-15T02:04:33;16.75;;;8.95;;
30048;SDS011;16879;50.852;15.602;2024-01-15T02:07:01;12.45;;;7.38;;
30048;SDS011;16879;50.852;15.602;2024-01-15T02:09:29;14.57;;;8.70;;
30048;SDS011;16879;50.852;15.602;2024-01-15T02:11:55;14.15;;;7.63;;
30048;SDS011;16879;50.852;15.602;2024-01-15T02:14:21;11.50;;;7.68;;
30048;SDS011;16879;50.852;15.602;2024-01-15T02:16:48;11.73;;;7.13;;
30048;SDS011;16879;50.852;15.602;2024-01-15T02:19:14;10.98;;;6.03;;
30048;SDS011;16879;50.852;15.602;2024-01-15T02:21:43;8.27;;;5.32;;
30048;SDS011;16879;50.852;15.602;2024-01-15T02:24:09;8.02;;;5.18;;
30048;SDS011;16879;50.852;15.602;2024-01-15T02:26:35;8.85;;;5.55;;
30048;SDS011;16879;50.852;15.602;2024-01-15T02:29:03;9.32;;;5.75;;
30048;SDS011;16879;50.852;15.602;2024-01-15T02:31:29;8.70;;;5.30;;
30048;SDS011;16879;50.852;15.602;2024-01-15T02:33:55;7.80;;;5.03;;
30048;SDS011;16879;50.852;15.602;2024-01-15T02:36:22;7.70;;;5.30;;
30048;SDS011;16879;50.852;15.602;2024-01-15T02:38:47;9.35;;;5.72;;
30048;SDS011;16879;50.852;15.602;2024-01-15T02:41:13;10.40;;;5.38;;
30048;SDS011;16879;50.852;15.602;2024-01-15T02:43:40;11.65;;;5.32;;
30048;SDS011;16879;50.852;15.602;2024-01-15T02:46:06;9.02;;;5.90;;
30048;SDS011;16879;50.852;15.602;2024-01-15T02:48:32;8.32;;;5.97;;
30048;SDS011;16879;50.852;15.602;2024-01-15T02:51:00;9.63;;;6.18;;
30048;SDS011;16879;50.852;15.602;2024-01-15T02:53:26;9.43;;;5.90;;
30048;SDS011;16879;50.852;15.602;2024-01-15T02:55:52;13.55;;;7.75;;
30048;SDS011;16879;50.852;15.602;2024-01-15T02:58:18;9.32;;;6.60;;
30048;SDS011;16879;50.852;15.602;2024-01-15T03:00:44;10.95;;;6.35;;
30048;SDS011;16879;50.852;15.602;2024-01-15T03:03:11;10.38;;;6.82;;
30048;SDS011;16879;50.852;15.602;2024-01-15T03:05:37;12.05;;;7.82;;
30048;SDS011;16879;50.852;15.602;2024-01-15T03:08:03;12.20;;;7.15;;
30048;SDS011;16879;50.852;15.602;2024-01-15T03:10:29;12.38;;;7.55;;
30048;SDS011;16879;50.852;15.602;2024-01-15T03:12:56;12.02;;;7.07;;
30048;SDS011;16879;50.852;15.602;2024-01-15T03:15:22;13.75;;;7.63;;
30048;SDS011;16879;50.852;15.602;2024-01-15T03:17:48;29.02;;;10.90;;
30048;SDS011;16879;50.852;15.602;2024-01-15T03:20:14;15.38;;;7.95;;
30048;SDS011;16879;50.852;15.602;2024-01-15T03:22:40;15.32;;;8.98;;
30048;SDS011;16879;50.852;15.602;2024-01-15T03:25:06;16.60;;;9.23;;
30048;SDS011;16879;50.852;15.602;2024-01-15T03:27:32;14.32;;;8.80;;
30048;SDS011;16879;50.852;15.602;2024-01-15T03:29:58;13.30;;;8.75;;
30048;SDS011;16879;50.852;15.602;2024-01-15T03:32:25;15.40;;;9.77;;
30048;SDS011;16879;50.852;15.602;2024-01-15T03:34:50;15.48;;;8.68;;
30048;SDS011;16879;50.852;15.602;2024-01-15T03:37:17;18.65;;;10.52;;
30048;SDS011;16879;50.852;15.602;2024-01-15T03:39:45;12.60;;;8.18;;
30048;SDS011;16879;50.852;15.602;2024-01-15T03:42:11;13.02;;;8.32;;
30048;SDS011;16879;50.852;15.602;2024-01-15T03:44:39;13.10;;;7.47;;
30048;SDS011;16879;50.852;15.602;2024-01-15T03:47:05;11.43;;;7.32;;
30048;SDS011;16879;50.852;15.602;2024-01-15T03:49:31;10.50;;;6.68;;
30048;SDS011;16879;50.852;15.602;2024-01-15T03:51:58;13.13;;;7.28;;
30048;SDS011;16879;50.852;15.602;2024-01-15T03:54:23;11.23;;;6.28;;
30048;SDS011;16879;50.852;15.602;2024-01-15T03:56:49;10.43;;;5.90;;
30048;SDS011;16879;50.852;15.602;2024-01-15T03:59:16;11.43;;;4.97;;
30048;SDS011;16879;50.852;15.602;2024-01-15T04:01:47;7.45;;;5.13;;
30048;SDS011;16879;50.852;15.602;2024-01-15T04:04:14;6.57;;;4.93;;
30048;SDS011;16879;50.852;15.602;2024-01-15T04:06:41;8.23;;;4.65;;
30048;SDS011;16879;50.852;15.602;2024-01-15T04:09:06;9.15;;;5.05;;
30048;SDS011;16879;50.852;15.602;2024-01-15T04:11:32;9.32;;;5.30;;
30048;SDS011;16879;50.852;15.602;2024-01-15T04:13:58;7.22;;;5.78;;
30048;SDS011;16879;50.852;15.602;2024-01-15T04:16:24;9.38;;;5.53;;
30048;SDS011;16879;50.852;15.602;2024-01-15T04:18:50;10.90;;;6.75;;
30048;SDS011;16879;50.852;15.602;2024-01-15T04:21:17;10.38;;;6.32;;
30048;SDS011;16879;50.852;15.602;2024-01-15T04:23:44;11.20;;;6.45;;
30048;SDS011;16879;50.852;15.602;2024-01-15T04:26:10;11.73;;;6.60;;
30048;SDS011;16879;50.852;15.602;2024-01-15T04:28:36;13.43;;;7.43;;
30048;SDS011;16879;50.852;15.602;2024-01-15T04:31:02;10.77;;;6.47;;
30048;SDS011;16879;50.852;15.602;2024-01-15T04:33:28;12.15;;;6.93;;
30048;SDS011;16879;50.852;15.602;2024-01-15T04:35:54;11.80;;;6.78;;
30048;SDS011;16879;50.852;15.602;2024-01-15T04:38:19;13.13;;;6.95;;
30048;SDS011;16879;50.852;15.602;2024-01-15T04:40:46;9.88;;;5.68;;
30048;SDS011;16879;50.852;15.602;2024-01-15T04:43:12;8.68;;;5.78;;
30048;SDS011;16879;50.852;15.602;2024-01-15T04:45:38;10.95;;;5.72;;
30048;SDS011;16879;50.852;15.602;2024-01-15T04:48:04;6.82;;;5.07;;
30048;SDS011;16879;50.852;15.602;2024-01-15T04:50:30;8.98;;;5.47;;
30048;SDS011;16879;50.852;15.602;2024-01-15T04:52:56;9.80;;;5.50;;
30048;SDS011;16879;50.852;15.602;2024-01-15T04:55:21;7.45;;;5.80;;
30048;SDS011;16879;50.852;15.602;2024-01-15T04:57:48;6.25;;;4.25;;
30048;SDS011;16879;50.852;15.602;2024-01-15T05:00:13;4.57;;;3.83;;
30048;SDS011;16879;50.852;15.602;2024-01-15T05:02:40;9.30;;;4.53;;
30048;SDS011;16879;50.852;15.602;2024-01-15T05:05:06;9.32;;;5.38;;
30048;SDS011;16879;50.852;15.602;2024-01-15T05:07:32;8.13;;;4.95;;
30048;SDS011;16879;50.852;15.602;2024-01-15T05:09:58;9.98;;;5.93;;
30048;SDS011;16879;50.852;15.602;2024-01-15T05:12:24;11.63;;;6.68;;
30048;SDS011;16879;50.852;15.602;2024-01-15T05:14:50;11.32;;;7.35;;
30048;SDS011;16879;50.852;15.602;2024-01-15T05:17:16;8.90;;;5.78;;
30048;SDS011;16879;50.852;15.602;2024-01-15T05:19:42;9.82;;;5.63;;
30048;SDS011;16879;50.852;15.602;2024-01-15T05:22:08;12.95;;;7.85;;
30048;SDS011;16879;50.852;15.602;2024-01-15T05:24:34;14.65;;;6.80;;
30048;SDS011;16879;50.852;15.602;2024-01-15T05:27:00;15.85;;;8.07;;
30048;SDS011;16879;50.852;15.602;2024-01-15T05:29:26;16.75;;;8.40;;
30048;SDS011;16879;50.852;15.602;2024-01-15T05:31:52;13.00;;;6.70;;
30048;SDS011;16879;50.852;15.602;2024-01-15T05:34:18;11.40;;;6.60;;
30048;SDS011;16879;50.852;15.602;2024-01-15T05:36:44;11.85;;;6.00;;
30048;SDS011;16879;50.852;15.602;2024-01-15T05:39:12;14.50;;;7.13;;
30048;SDS011;16879;50.852;15.602;2024-01-15T05:41:38;12.05;;;6.82;;
30048;SDS011;16879;50.852;15.602;2024-01-15T05:44:04;10.02;;;6.45;;
30048;SDS011;16879;50.852;15.602;2024-01-15T05:46:30;14.13;;;8.50;;
30048;SDS011;16879;50.852;15.602;2024-01-15T05:48:56;9.43;;;5.50;;
30048;SDS011;16879;50.852;15.602;2024-01-15T05:51:22;10.30;;;6.53;;
30048;SDS011;16879;50.852;15.602;2024-01-15T05:53:48;11.88;;;6.38;;
30048;SDS011;16879;50.852;15.602;2024-01-15T05:56:15;11.55;;;7.15;;
30048;SDS011;16879;50.852;15.602;2024-01-15T05:58:42;9.02;;;6.13;;
30048;SDS011;16879;50.852;15.602;2024-01-15T06:01:09;9.77;;;6.45;;
30048;SDS011;16879;50.852;15.602;2024-01-15T06:03:35;12.35;;;6.70;;
30048;SDS011;16879;50.852;15.602;2024-01-15T06:06:01;12.23;;;7.63;;
30048;SDS011;16879;50.852;15.602;2024-01-15T06:08:27;8.90;;;6.30;;
30048;SDS011;16879;50.852;15.602;2024-01-15T06:10:55;12.77;;;6.95;;
30048;SDS011;16879;50.852;15.602;2024-01-15T06:13:22;10.48;;;6.38;;
30048;SDS011;16879;50.852;15.602;2024-01-15T06:15:48;14.95;;;7.90;;
30048;SDS011;16879;50.852;15.602;2024-01-15T06:18:13;12.90;;;7.50;;
30048;SDS011;16879;50.852;15.602;2024-01-15T06:20:40;10.43;;;6.18;;
30048;SDS011;16879;50.852;15.602;2024-01-15T06:23:06;14.55;;;7.28;;
30048;SDS011;16879;50.852;15.602;2024-01-15T06:25:32;11.07;;;6.90;;
30048;SDS011;16879;50.852;15.602;2024-01-15T06:27:58;13.77;;;8.75;;
30048;SDS011;16879;50.852;15.602;2024-01-15T06:30:24;21.90;;;11.05;;
30048;SDS011;16879;50.852;15.602;2024-01-15T06:32:51;16.92;;;10.45;;
30048;SDS011;16879;50.852;15.602;2024-01-15T06:35:17;10.63;;;7.57;;
30048;SDS011;16879;50.852;15.602;2024-01-15T06:37:43;12.55;;;7.50;;
30048;SDS011;16879;50.852;15.602;2024-01-15T06:40:09;14.63;;;7.82;;
30048;SDS011;16879;50.852;15.602;2024-01-15T06:42:36;14.63;;;7.80;;
30048;SDS011;16879;50.852;15.602;2024-01-15T06:45:02;15.13;;;7.55;;
30048;SDS011;16879;50.852;15.602;2024-01-15T06:47:28;14.93;;;8.65;;
30048;SDS011;16879;50.852;15.602;2024-01-15T06:49:54;11.48;;;7.35;;
30048;SDS011;16879;50.852;15.602;2024-01-15T06:52:31;15.35;;;8.80;;
30048;SDS011;16879;50.852;15.602;2024-01-15T06:54:57;15.60;;;8.13;;
30048;SDS011;16879;50.852;15.602;2024-01-15T06:57:24;14.77;;;7.55;;
30048;SDS011;16879;50.852;15.602;2024-01-15T06:59:50;11.63;;;7.28;;
30048;SDS011;16879;50.852;15.602;2024-01-15T07:02:16;10.45;;;6.28;;
30048;SDS011;16879;50.852;15.602;2024-01-15T07:04:42;11.85;;;6.75;;
30048;SDS011;16879;50.852;15.602;2024-01-15T07:07:10;13.05;;;6.07;;
30048;SDS011;16879;50.852;15.602;2024-01-15T07:09:36;11.10;;;6.18;;
30048;SDS011;16879;50.852;15.602;2024-01-15T07:12:02;12.02;;;5.68;;
30048;SDS011;16879;50.852;15.602;2024-01-15T07:14:28;12.05;;;6.35;;
30048;SDS011;16879;50.852;15.602;2024-01-15T07:16:54;13.70;;;6.45;;
30048;SDS011;16879;50.852;15.602;2024-01-15T07:19:20;12.95;;;6.65;;
30048;SDS011;16879;50.852;15.602;2024-01-15T07:21:46;13.60;;;6.38;;
30048;SDS011;16879;50.852;15.602;2024-01-15T07:24:12;8.52;;;5.47;;
30048;SDS011;16879;50.852;15.602;2024-01-15T07:26:38;9.73;;;5.53;;
30048;SDS011;16879;50.852;15.602;2024-01-15T07:29:04;12.45;;;6.57;;
30048;SDS011;16879;50.852;15.602;2024-01-15T07:31:30;9.23;;;5.97;;
30048;SDS011;16879;50.852;15.602;2024-01-15T07:33:57;8.70;;;5.45;;
30048;SDS011;16879;50.852;15.602;2024-01-15T07:36:25;12.70;;;7.32;;
30048;SDS011;16879;50.852;15.602;2024-01-15T07:38:51;12.93;;;7.03;;
30048;SDS011;16879;50.852;15.602;2024-01-15T07:41:16;10.10;;;6.18;;
30048;SDS011;16879;50.852;15.602;2024-01-15T07:43:43;15.10;;;7.07;;
30048;SDS011;16879;50.852;15.602;2024-01-15T07:46:08;10.52;;;6.18;;
30048;SDS011;16879;50.852;15.602;2024-01-15T07:48:34;11.02;;;6.78;;
30048;SDS011;16879;50.852;15.602;2024-01-15T07:51:00;13.90;;;7.68;;
30048;SDS011;16879;50.852;15.602;2024-01-15T07:53:26;12.75;;;6.93;;
30048;SDS011;16879;50.852;15.602;2024-01-15T07:55:53;11.75;;;7.25;;
30048;SDS011;16879;50.852;15.602;2024-01-15T07:58:19;11.80;;;6.30;;
30048;SDS011;16879;50.852;15.602;2024-01-15T08:00:44;10.15;;;6.35;;
30048;SDS011;16879;50.852;15.602;2024-01-15T08:03:11;17.80;;;9.43;;
30048;SDS011;16879;50.852;15.602;2024-01-15T08:05:38;13.48;;;6.38;;
30048;SDS011;16879;50.852;15.602;2024-01-15T08:08:04;15.30;;;7.45;;
30048;SDS011;16879;50.852;15.602;2024-01-15T08:10:30;12.02;;;6.80;;
30048;SDS011;16879;50.852;15.602;2024-01-15T08:12:56;14.85;;;7.25;;
30048;SDS011;16879;50.852;15.602;2024-01-15T08:15:22;12.90;;;8.05;;
30048;SDS011;16879;50.852;15.602;2024-01-15T08:17:48;14.60;;;7.03;;
30048;SDS011;16879;50.852;15.602;2024-01-15T08:20:14;13.52;;;7.95;;
30048;SDS011;16879;50.852;15.602;2024-01-15T08:22:41;13.40;;;6.80;;
30048;SDS011;16879;50.852;15.602;2024-01-15T08:25:07;15.40;;;8.13;;
30048;SDS011;16879;50.852;15.602;2024-01-15T08:27:33;15.00;;;7.15;;
30048;SDS011;16879;50.852;15.602;2024-01-15T08:30:00;12.15;;;7.68;;
30048;SDS011;16879;50.852;15.602;2024-01-15T08:32:26;17.95;;;9.05;;
30048;SDS011;16879;50.852;15.602;2024-01-15T08:34:52;13.23;;;7.65;;
30048;SDS011;16879;50.852;15.602;2024-01-15T08:37:18;10.70;;;7.07;;
30048;SDS011;16879;50.852;15.602;2024-01-15T08:39:44;12.70;;;7.20;;
30048;SDS011;16879;50.852;15.602;2024-01-15T08:42:10;13.27;;;8.07;;
30048;SDS011;16879;50.852;15.602;2024-01-15T08:44:36;14.10;;;7.95;;
30048;SDS011;16879;50.852;15.602;2024-01-15T08:47:04;14.60;;;7.88;;
30048;SDS011;16879;50.852;15.602;2024-01-15T08:49:30;13.05;;;7.18;;
30048;SDS011;16879;50.852;15.602;2024-01-15T08:51:56;15.77;;;9.10;;
30048;SDS011;16879;50.852;15.602;2024-01-15T08:54:22;16.33;;;8.15;;
30048;SDS011;16879;50.852;15.602;2024-01-15T08:56:48;11.73;;;6.57;;
30048;SDS011;16879;50.852;15.602;2024-01-15T08:59:14;16.52;;;8.80;;
30048;SDS011;16879;50.852;15.602;2024-01-15T09:01:41;13.43;;;7.45;;
30048;SDS011;16879;50.852;15.602;2024-01-15T09:04:07;14.73;;;7.13;;
30048;SDS011;16879;50.852;15.602;2024-01-15T09:06:33;17.90;;;8.98;;
30048;SDS011;16879;50.852;15.602;2024-01-15T09:08:59;17.98;;;8.27;;
30048;SDS011;16879;50.852;15.602;2024-01-15T09:11:25;14.23;;;8.05;;
30048;SDS011;16879;50.852;15.602;2024-01-15T09:13:51;15.13;;;7.22;;
30048;SDS011;16879;50.852;15.602;2024-01-15T09:16:17;14.65;;;7.43;;
30048;SDS011;16879;50.852;15.602;2024-01-15T09:18:42;14.98;;;8.05;;
30048;SDS011;16879;50.852;15.602;2024-01-15T09:21:08;15.45;;;8.38;;
30048;SDS011;16879;50.852;15.602;2024-01-15T09:23:34;17.30;;;9.52;;
30048;SDS011;16879;50.852;15.602;2024-01-15T09:26:00;17.05;;;8.13;;
30048;SDS011;16879;50.852;15.602;2024-01-15T09:28:26;12.65;;;7.45;;
30048;SDS011;16879;50.852;15.602;2024-01-15T09:30:54;18.98;;;9.55;;
30048;SDS011;16879;50.852;15.602;2024-01-15T09:33:20;12.98;;;8.63;;
30048;SDS011;16879;50.852;15.602;2024-01-15T09:35:46;17.05;;;9.23;;
30048;SDS011;16879;50.852;15.602;2024-01-15T09:38:12;17.35;;;9.23;;
30048;SDS011;16879;50.852;15.602;2024-01-15T09:40:39;16.15;;;10.13;;
30048;SDS011;16879;50.852;15.602;2024-01-15T09:43:10;18.67;;;10.35;;
30048;SDS011;16879;50.852;15.602;2024-01-15T09:45:37;14.20;;;8.40;;
30048;SDS011;16879;50.852;15.602;2024-01-15T09:48:04;16.25;;;10.02;;
30048;SDS011;16879;50.852;15.602;2024-01-15T09:50:32;16.15;;;11.18;;
30048;SDS011;16879;50.852;15.602;2024-01-15T09:52:58;16.52;;;9.10;;
30048;SDS011;16879;50.852;15.602;2024-01-15T09:55:25;22.85;;;11.75;;
30048;SDS011;16879;50.852;15.602;2024-01-15T09:57:52;18.38;;;8.82;;
30048;SDS011;16879;50.852;15.602;2024-01-15T10:00:19;19.48;;;10.25;;
30048;SDS011;16879;50.852;15.602;2024-01-15T10:02:46;16.35;;;8.38;;
30048;SDS011;16879;50.852;15.602;2024-01-15T10:05:12;16.33;;;9.77;;
30048;SDS011;16879;50.852;15.602;2024-01-15T10:07:38;13.90;;;8.40;;
30048;SDS011;16879;50.852;15.602;2024-01-15T10:10:06;19.67;;;10.82;;
30048;SDS011;16879;50.852;15.602;2024-01-15T10:12:35;17.92;;;9.23;;
30048;SDS011;16879;50.852;15.602;2024-01-15T10:15:02;18.77;;;9.43;;
30048;SDS011;16879;50.852;15.602;2024-01-15T10:17:29;19.25;;;9.05;;
30048;SDS011;16879;50.852;15.602;2024-01-15T10:19:56;17.80;;;8.40;;
30048;SDS011;16879;50.852;15.602;2024-01-15T10:22:22;19.52;;;9.57;;
30048;SDS011;16879;50.852;15.602;2024-01-15T10:24:48;18.55;;;9.13;;
30048;SDS011;16879;50.852;15.602;2024-01-15T10:27:16;16.73;;;8.50;;
30048;SDS011;16879;50.852;15.602;2024-01-15T10:29:42;17.15;;;8.77;;
30048;SDS011;16879;50.852;15.602;2024-01-15T10:32:08;17.85;;;9.18;;
30048;SDS011;16879;50.852;15.602;2024-01-15T10:34:37;21.95;;;9.23;;
30048;SDS011;16879;50.852;15.602;2024-01-15T10:37:04;16.70;;;9.13;;
30048;SDS011;16879;50.852;15.602;2024-01-15T10:39:32;17.92;;;8.60;;
30048;SDS011;16879;50.852;15.602;2024-01-15T10:41:58;15.00;;;8.13;;
30048;SDS011;16879;50.852;15.602;2024-01-15T10:44:26;17.85;;;8.85;;
30048;SDS011;16879;50.852;15.602;2024-01-15T10:46:52;15.57;;;8.50;;
30048;SDS011;16879;50.852;15.602;2024-01-15T10:49:20;14.00;;;8.75;;
30048;SDS011;16879;50.852;15.602;2024-01-15T10:51:46;16.35;;;8.48;;
30048;SDS011;16879;50.852;15.602;2024-01-15T10:54:13;17.98;;;8.45;;
30048;SDS011;16879;50.852;15.602;2024-01-15T10:56:39;19.05;;;9.25;;
30048;SDS011;16879;50.852;15.602;2024-01-15T10:59:06;14.60;;;8.45;;
30048;SDS011;16879;50.852;15.602;2024-01-15T11:01:35;15.13;;;8.48;;
30048;SDS011;16879;50.852;15.602;2024-01-15T11:04:02;19.05;;;11.18;;
30048;SDS011;16879;50.852;15.602;2024-01-15T11:06:28;17.15;;;9.82;;
30048;SDS011;16879;50.852;15.602;2024-01-15T11:09:06;21.13;;;11.00;;
30048;SDS011;16879;50.852;15.602;2024-01-15T11:11:35;18.35;;;9.43;;
30048;SDS011;16879;50.852;15.602;2024-01-15T11:14:05;26.85;;;13.93;;
30048;SDS011;16879;50.852;15.602;2024-01-15T11:19:21;25.02;;;13.48;;
30048;SDS011;16879;50.852;15.602;2024-01-15T11:21:49;19.15;;;9.93;;
30048;SDS011;16879;50.852;15.602;2024-01-15T11:24:34;65.05;;;25.88;;
30048;SDS011;16879;50.852;15.602;2024-01-15T11:27:01;34.45;;;16.05;;
30048;SDS011;16879;50.852;15.602;2024-01-15T11:32:00;34.50;;;16.40;;
30048;SDS011;16879;50.852;15.602;2024-01-15T11:37:15;35.67;;;15.50;;
30048;SDS011;16879;50.852;15.602;2024-01-15T11:39:42;25.90;;;13.48;;
30048;SDS011;16879;50.852;15.602;2024-01-15T11:42:08;18.73;;;10.35;;
30048;SDS011;16879;50.852;15.602;2024-01-15T11:44:36;45.30;;;16.42;;
30048;SDS011;16879;50.852;15.602;2024-01-15T11:47:04;26.95;;;11.65;;
30048;SDS011;16879;50.852;15.602;2024-01-15T11:49:38;22.65;;;12.10;;
30048;SDS011;16879;50.852;15.602;2024-01-15T11:52:15;25.08;;;12.68;;
30048;SDS011;16879;50.852;15.602;2024-01-15T11:54:45;25.42;;;12.52;;
30048;SDS011;16879;50.852;15.602;2024-01-15T11:57:33;30.85;;;14.73;;
30048;SDS011;16879;50.852;15.602;2024-01-15T12:00:02;23.70;;;11.38;;
30048;SDS011;16879;50.852;15.602;2024-01-15T12:02:29;23.95;;;10.90;;
30048;SDS011;16879;50.852;15.602;2024-01-15T12:04:56;21.90;;;11.93;;
30048;SDS011;16879;50.852;15.602;2024-01-15T12:07:22;27.13;;;12.13;;
30048;SDS011;16879;50.852;15.602;2024-01-15T12:09:48;22.45;;;10.02;;
30048;SDS011;16879;50.852;15.602;2024-01-15T12:12:16;25.33;;;11.18;;
30048;SDS011;16879;50.852;15.602;2024-01-15T12:14:45;21.02;;;10.10;;
30048;SDS011;16879;50.852;15.602;2024-01-15T12:17:11;20.85;;;9.35;;
30048;SDS011;16879;50.852;15.602;2024-01-15T12:19:37;19.00;;;9.80;;
30048;SDS011;16879;50.852;15.602;2024-01-15T12:22:03;24.80;;;11.23;;
30048;SDS011;16879;50.852;15.602;2024-01-15T12:24:30;19.23;;;10.80;;
30048;SDS011;16879;50.852;15.602;2024-01-15T12:26:56;16.73;;;9.43;;
30048;SDS011;16879;50.852;15.602;2024-01-15T12:29:25;20.38;;;8.70;;
30048;SDS011;16879;50.852;15.602;2024-01-15T12:31:51;14.07;;;7.78;;
30048;SDS011;16879;50.852;15.602;2024-01-15T12:34:18;14.10;;;7.95;;
30048;SDS011;16879;50.852;15.602;2024-01-15T12:36:46;16.08;;;9.32;;
30048;SDS011;16879;50.852;15.602;2024-01-15T12:39:24;27.10;;;11.65;;
30048;SDS011;16879;50.852;15.602;2024-01-15T12:41:50;21.90;;;8.73;;
30048;SDS011;16879;50.852;15.602;2024-01-15T12:44:17;35.30;;;13.27;;
30048;SDS011;16879;50.852;15.602;2024-01-15T12:46:43;17.33;;;8.20;;
30048;SDS011;16879;50.852;15.602;2024-01-15T12:49:09;20.77;;;10.10;;
30048;SDS011;16879;50.852;15.602;2024-01-15T12:51:36;30.05;;;12.52;;
30048;SDS011;16879;50.852;15.602;2024-01-15T12:54:02;20.60;;;10.15;;
30048;SDS011;16879;50.852;15.602;2024-01-15T12:56:28;18.17;;;9.25;;
30048;SDS011;16879;50.852;15.602;2024-01-15T12:58:54;19.85;;;10.60;;
30048;SDS011;16879;50.852;15.602;2024-01-15T13:01:20;20.45;;;10.98;;
30048;SDS011;16879;50.852;15.602;2024-01-15T13:03:46;23.08;;;9.85;;
30048;SDS011;16879;50.852;15.602;2024-01-15T13:06:12;21.23;;;10.18;;
30048;SDS011;16879;50.852;15.602;2024-01-15T13:08:38;14.68;;;8.98;;
30048;SDS011;16879;50.852;15.602;2024-01-15T13:11:04;14.70;;;8.65;;
30048;SDS011;16879;50.852;15.602;2024-01-15T13:13:30;19.27;;;11.00;;
30048;SDS011;16879;50.852;15.602;2024-01-15T13:15:59;18.85;;;9.48;;
30048;SDS011;16879;50.852;15.602;2024-01-15T13:18:25;20.13;;;8.68;;
30048;SDS011;16879;50.852;15.602;2024-01-15T13:20:51;15.85;;;8.82;;
30048;SDS011;16879;50.852;15.602;2024-01-15T13:23:17;19.45;;;9.35;;
30048;SDS011;16879;50.852;15.602;2024-01-15T13:25:43;20.48;;;10.02;;
30048;SDS011;16879;50.852;15.602;2024-01-15T13:28:09;17.23;;;9.35;;
30048;SDS011;16879;50.852;15.602;2024-01-15T13:30:35;14.98;;;8.20;;
30048;SDS011;16879;50.852;15.602;2024-01-15T13:33:02;17.85;;;8.85;;
30048;SDS011;16879;50.852;15.602;2024-01-15T13:35:29;16.17;;;8.45;;
30048;SDS011;16879;50.852;15.602;2024-01-15T13:37:56;12.75;;;7.25;;
30048;SDS011;16879;50.852;15.602;2024-01-15T13:40:23;14.10;;;8.27;;
30048;SDS011;16879;50.852;15.602;2024-01-15T13:42:49;16.27;;;9.10;;
30048;SDS011;16879;50.852;15.602;2024-01-15T13:45:17;18.67;;;9.93;;
30048;SDS011;16879;50.852;15.602;2024-01-15T13:47:43;26.20;;;11.73;;
30048;SDS011;16879;50.852;15.602;2024-01-15T13:50:09;23.90;;;12.73;;
30048;SDS011;16879;50.852;15.602;2024-01-15T13:52:35;18.27;;;9.98;;
30048;SDS011;16879;50.852;15.602;2024-01-15T13:55:02;22.52;;;11.50;;
30048;SDS011;16879;50.852;15.602;2024-01-15T13:57:28;21.92;;;11.50;;
30048;SDS011;16879;50.852;15.602;2024-01-15T13:59:54;21.02;;;10.02;;
30048;SDS011;16879;50.852;15.602;2024-01-15T14:02:20;16.73;;;8.55;;
30048;SDS011;16879;50.852;15.602;2024-01-15T14:04:47;17.08;;;9.85;;
30048;SDS011;16879;50.852;15.602;2024-01-15T14:07:13;25.25;;;12.02;;
30048;SDS011;16879;50.852;15.602;2024-01-15T14:09:40;25.38;;;12.98;;
30048;SDS011;16879;50.852;15.602;2024-01-15T14:12:07;26.33;;;13.02;;
30048;SDS011;16879;50.852;15.602;2024-01-15T14:14:33;28.30;;;13.80;;
30048;SDS011;16879;50.852;15.602;2024-01-15T14:16:59;23.48;;;11.75;;
30048;SDS011;16879;50.852;15.602;2024-01-15T14:19:25;25.83;;;15.02;;
30048;SDS011;16879;50.852;15.602;2024-01-15T14:21:50;37.65;;;20.17;;
30048;SDS011;16879;50.852;15.602;2024-01-15T14:24:16;51.95;;;24.02;;